sensor_id;sensor_type;location;lat;lon;timestamp;P1;durP1;ratioP1;P2;durP2;ratioP2
12871;SDS011;6504;53.766;9.626;2024-01-30T00:02:00;13.67;;;12.20;;
12871;SDS011;6504;53.766;9.626;2024-01-30T00:04:31;14.33;;;12.30;;
12871;SDS011;6504;53.766;9.626;2024-01-30T00:07:00;14.60;;;12.43;;
12871;SDS011;6504;53.766;9.626;2024-01-30T00:09:29;13.63;;;12.33;;
12871;SDS011;6504;53.766;9.626;2024-01-30T00:11:57;13.93;;;12.43;;
12871;SDS011;6504;53.766;9.626;2024-01-30T00:14:27;14.27;;;12.83;;
12871;SDS011;6504;53.766;9.626;2024-01-30T00:16:55;13.30;;;11.97;;
12871;SDS011;6504;53.766;9.626;2024-01-30T00:19:24;15.37;;;13.50;;
12871;SDS011;6504;53.766;9.626;2024-01-30T00:21:53;16.63;;;13.40;;
12871;SDS011;6504;53.766;9.626;2024-01-30T00:24:21;14.60;;;13.10;;
12871;SDS011;6504;53.766;9.626;2024-01-30T00:26:49;15.17;;;13.47;;
12871;SDS011;6504;53.766;9.626;2024-01-30T00:29:18;15.50;;;13.50;;
12871;SDS011;6504;53.766;9.626;2024-01-30T00:31:49;15.90;;;14.20;;
12871;SDS011;6504;53.766;9.626;2024-01-30T00:34:19;14.10;;;12.70;;
12871;SDS011;6504;53.766;9.626;2024-01-30T00:36:47;15.07;;;12.83;;
12871;SDS011;6504;53.766;9.626;2024-01-30T00:39:15;15.57;;;13.37;;
12871;SDS011;6504;53.766;9.626;2024-01-30T00:41:46;13.80;;;12.40;;
12871;SDS011;6504;53.766;9.626;2024-01-30T00:44:14;15.27;;;12.77;;
12871;SDS011;6504;53.766;9.626;2024-01-30T00:46:42;14.13;;;12.63;;
12871;SDS011;6504;53.766;9.626;2024-01-30T00:49:11;15.43;;;13.80;;
12871;SDS011;6504;53.766;9.626;2024-01-30T00:51:40;15.30;;;13.07;;
12871;SDS011;6504;53.766;9.626;2024-01-30T00:54:08;13.63;;;12.33;;
12871;SDS011;6504;53.766;9.626;2024-01-30T00:56:36;14.50;;;12.37;;
12871;SDS011;6504;53.766;9.626;2024-01-30T00:59:05;14.40;;;12.80;;
12871;SDS011;6504;53.766;9.626;2024-01-30T01:01:33;14.63;;;13.07;;
12871;SDS011;6504;53.766;9.626;2024-01-30T01:04:01;14.43;;;12.87;;
12871;SDS011;6504;53.766;9.626;2024-01-30T01:06:31;13.77;;;12.37;;
12871;SDS011;6504;53.766;9.626;2024-01-30T01:08:59;14.03;;;12.60;;
12871;SDS011;6504;53.766;9.626;2024-01-30T01:11:30;14.03;;;12.63;;
12871;SDS011;6504;53.766;9.626;2024-01-30T01:14:00;14.33;;;12.83;;
12871;SDS011;6504;53.766;9.626;2024-01-30T01:16:28;14.97;;;13.30;;
12871;SDS011;6504;53.766;9.626;2024-01-30T01:18:56;14.10;;;12.63;;
12871;SDS011;6504;53.766;9.626;2024-01-30T01:21:27;13.77;;;12.40;;
12871;SDS011;6504;53.766;9.626;2024-01-30T01:23:56;13.90;;;12.50;;
12871;SDS011;6504;53.766;9.626;2024-01-30T01:26:26;14.30;;;12.63;;
12871;SDS011;6504;53.766;9.626;2024-01-30T01:28:54;13.87;;;12.37;;
12871;SDS011;6504;53.766;9.626;2024-01-30T01:31:23;15.20;;;12.20;;
12871;SDS011;6504;53.766;9.626;2024-01-30T01:33:51;13.90;;;12.40;;
12871;SDS011;6504;53.766;9.626;2024-01-30T01:36:20;13.90;;;12.50;;
12871;SDS011;6504;53.766;9.626;2024-01-30T01:38:48;13.53;;;12.23;;
12871;SDS011;6504;53.766;9.626;2024-01-30T01:41:18;13.07;;;11.77;;
12871;SDS011;6504;53.766;9.626;2024-01-30T01:43:46;12.70;;;11.47;;
12871;SDS011;6504;53.766;9.626;2024-01-30T01:46:15;13.27;;;11.97;;
12871;SDS011;6504;53.766;9.626;2024-01-30T01:48:45;14.30;;;12.80;;
12871;SDS011;6504;53.766;9.626;2024-01-30T01:51:13;12.87;;;11.57;;
12871;SDS011;6504;53.766;9.626;2024-01-30T01:53:43;13.27;;;11.87;;
12871;SDS011;6504;53.766;9.626;2024-01-30T01:56:11;13.30;;;11.90;;
12871;SDS011;6504;53.766;9.626;2024-01-30T01:58:41;12.80;;;11.57;;
12871;SDS011;6504;53.766;9.626;2024-01-30T02:01:09;14.83;;;13.33;;
12871;SDS011;6504;53.766;9.626;2024-01-30T02:03:38;12.80;;;11.60;;
12871;SDS011;6504;53.766;9.626;2024-01-30T02:06:08;13.37;;;12.07;;
12871;SDS011;6504;53.766;9.626;2024-01-30T02:08:37;13.00;;;11.73;;
12871;SDS011;6504;53.766;9.626;2024-01-30T02:11:05;13.10;;;11.80;;
12871;SDS011;6504;53.766;9.626;2024-01-30T02:13:33;14.00;;;12.03;;
12871;SDS011;6504;53.766;9.626;2024-01-30T02:16:03;12.90;;;11.60;;
12871;SDS011;6504;53.766;9.626;2024-01-30T02:18:33;13.30;;;11.77;;
12871;SDS011;6504;53.766;9.626;2024-01-30T02:21:04;12.73;;;11.43;;
12871;SDS011;6504;53.766;9.626;2024-01-30T02:23:33;11.93;;;10.83;;
12871;SDS011;6504;53.766;9.626;2024-01-30T02:26:01;12.17;;;10.93;;
12871;SDS011;6504;53.766;9.626;2024-01-30T02:28:30;12.40;;;11.20;;
12871;SDS011;6504;53.766;9.626;2024-01-30T02:30:58;11.93;;;10.83;;
12871;SDS011;6504;53.766;9.626;2024-01-30T02:33:26;11.80;;;10.60;;
12871;SDS011;6504;53.766;9.626;2024-01-30T02:35:54;13.30;;;11.97;;
12871;SDS011;6504;53.766;9.626;2024-01-30T02:38:24;11.47;;;10.47;;
12871;SDS011;6504;53.766;9.626;2024-01-30T02:40:53;12.17;;;11.07;;
12871;SDS011;6504;53.766;9.626;2024-01-30T02:43:21;12.07;;;10.87;;
12871;SDS011;6504;53.766;9.626;2024-01-30T02:45:50;11.27;;;10.13;;
12871;SDS011;6504;53.766;9.626;2024-01-30T02:48:18;11.20;;;10.10;;
12871;SDS011;6504;53.766;9.626;2024-01-30T02:50:46;11.27;;;10.23;;
12871;SDS011;6504;53.766;9.626;2024-01-30T02:53:14;11.93;;;10.83;;
12871;SDS011;6504;53.766;9.626;2024-01-30T02:55:44;11.63;;;10.47;;
12871;SDS011;6504;53.766;9.626;2024-01-30T02:58:12;11.23;;;10.13;;
12871;SDS011;6504;53.766;9.626;2024-01-30T03:00:40;11.77;;;10.57;;
12871;SDS011;6504;53.766;9.626;2024-01-30T03:03:08;11.67;;;10.57;;
12871;SDS011;6504;53.766;9.626;2024-01-30T03:05:37;11.93;;;10.90;;
12871;SDS011;6504;53.766;9.626;2024-01-30T03:08:05;10.80;;;9.70;;
12871;SDS011;6504;53.766;9.626;2024-01-30T03:10:34;11.50;;;10.50;;
12871;SDS011;6504;53.766;9.626;2024-01-30T03:13:03;10.87;;;9.77;;
12871;SDS011;6504;53.766;9.626;2024-01-30T03:15:32;11.07;;;9.97;;
12871;SDS011;6504;53.766;9.626;2024-01-30T03:18:00;10.67;;;9.43;;
12871;SDS011;6504;53.766;9.626;2024-01-30T03:20:30;11.27;;;10.17;;
12871;SDS011;6504;53.766;9.626;2024-01-30T03:22:59;11.73;;;10.13;;
12871;SDS011;6504;53.766;9.626;2024-01-30T03:25:28;11.73;;;10.57;;
12871;SDS011;6504;53.766;9.626;2024-01-30T03:27:56;12.00;;;10.90;;
12871;SDS011;6504;53.766;9.626;2024-01-30T03:30:25;12.87;;;11.40;;
12871;SDS011;6504;53.766;9.626;2024-01-30T03:32:53;12.67;;;11.43;;
12871;SDS011;6504;53.766;9.626;2024-01-30T03:35:22;13.37;;;12.07;;
12871;SDS011;6504;53.766;9.626;2024-01-30T03:37:51;13.80;;;11.57;;
12871;SDS011;6504;53.766;9.626;2024-01-30T03:40:19;12.67;;;11.37;;
12871;SDS011;6504;53.766;9.626;2024-01-30T03:42:48;12.87;;;11.57;;
12871;SDS011;6504;53.766;9.626;2024-01-30T03:45:16;11.73;;;10.53;;
12871;SDS011;6504;53.766;9.626;2024-01-30T03:47:47;11.70;;;10.50;;
12871;SDS011;6504;53.766;9.626;2024-01-30T03:50:16;11.60;;;10.57;;
12871;SDS011;6504;53.766;9.626;2024-01-30T03:52:45;11.53;;;10.33;;
12871;SDS011;6504;53.766;9.626;2024-01-30T03:55:13;11.77;;;10.60;;
12871;SDS011;6504;53.766;9.626;2024-01-30T03:57:41;10.77;;;9.83;;
12871;SDS011;6504;53.766;9.626;2024-01-30T04:00:10;11.73;;;10.53;;
12871;SDS011;6504;53.766;9.626;2024-01-30T04:02:39;11.70;;;10.60;;
12871;SDS011;6504;53.766;9.626;2024-01-30T04:05:09;11.77;;;10.60;;
12871;SDS011;6504;53.766;9.626;2024-01-30T04:07:37;12.27;;;10.73;;
12871;SDS011;6504;53.766;9.626;2024-01-30T04:10:21;11.50;;;10.40;;
12871;SDS011;6504;53.766;9.626;2024-01-30T04:12:50;12.00;;;10.80;;
12871;SDS011;6504;53.766;9.626;2024-01-30T04:15:20;11.17;;;10.17;;
12871;SDS011;6504;53.766;9.626;2024-01-30T04:17:48;11.83;;;10.63;;
12871;SDS011;6504;53.766;9.626;2024-01-30T04:20:17;10.97;;;9.87;;
12871;SDS011;6504;53.766;9.626;2024-01-30T04:22:45;11.90;;;10.27;;
12871;SDS011;6504;53.766;9.626;2024-01-30T04:25:14;11.97;;;10.73;;
12871;SDS011;6504;53.766;9.626;2024-01-30T04:27:44;12.40;;;10.80;;
12871;SDS011;6504;53.766;9.626;2024-01-30T04:30:12;11.37;;;10.17;;
12871;SDS011;6504;53.766;9.626;2024-01-30T04:32:40;11.63;;;10.43;;
12871;SDS011;6504;53.766;9.626;2024-01-30T04:35:09;12.00;;;10.80;;
12871;SDS011;6504;53.766;9.626;2024-01-30T04:37:38;12.70;;;11.50;;
12871;SDS011;6504;53.766;9.626;2024-01-30T04:40:06;11.47;;;10.40;;
12871;SDS011;6504;53.766;9.626;2024-01-30T04:42:36;12.37;;;10.83;;
12871;SDS011;6504;53.766;9.626;2024-01-30T04:45:06;11.47;;;10.37;;
12871;SDS011;6504;53.766;9.626;2024-01-30T04:47:35;11.53;;;10.33;;
12871;SDS011;6504;53.766;9.626;2024-01-30T04:50:03;11.60;;;10.40;;
12871;SDS011;6504;53.766;9.626;2024-01-30T04:52:32;11.47;;;10.27;;
12871;SDS011;6504;53.766;9.626;2024-01-30T04:55:00;12.93;;;11.63;;
12871;SDS011;6504;53.766;9.626;2024-01-30T04:57:29;12.03;;;10.83;;
12871;SDS011;6504;53.766;9.626;2024-01-30T04:59:58;12.37;;;11.17;;
12871;SDS011;6504;53.766;9.626;2024-01-30T05:02:27;11.90;;;10.70;;
12871;SDS011;6504;53.766;9.626;2024-01-30T05:04:56;12.30;;;11.20;;
12871;SDS011;6504;53.766;9.626;2024-01-30T05:07:24;12.90;;;11.43;;
12871;SDS011;6504;53.766;9.626;2024-01-30T05:09:52;14.03;;;11.47;;
12871;SDS011;6504;53.766;9.626;2024-01-30T05:12:24;12.20;;;11.00;;
12871;SDS011;6504;53.766;9.626;2024-01-30T05:14:54;12.47;;;11.17;;
12871;SDS011;6504;53.766;9.626;2024-01-30T05:17:22;13.57;;;11.90;;
12871;SDS011;6504;53.766;9.626;2024-01-30T05:19:52;12.07;;;10.87;;
12871;SDS011;6504;53.766;9.626;2024-01-30T05:22:20;12.23;;;11.00;;
12871;SDS011;6504;53.766;9.626;2024-01-30T05:24:49;12.40;;;11.20;;
12871;SDS011;6504;53.766;9.626;2024-01-30T05:27:17;13.37;;;11.97;;
12871;SDS011;6504;53.766;9.626;2024-01-30T05:29:45;14.50;;;11.83;;
12871;SDS011;6504;53.766;9.626;2024-01-30T05:32:13;13.13;;;11.77;;
12871;SDS011;6504;53.766;9.626;2024-01-30T05:34:41;13.67;;;12.27;;
12871;SDS011;6504;53.766;9.626;2024-01-30T05:37:11;13.73;;;12.10;;
12871;SDS011;6504;53.766;9.626;2024-01-30T05:39:43;13.73;;;12.27;;
12871;SDS011;6504;53.766;9.626;2024-01-30T05:42:11;13.37;;;12.07;;
12871;SDS011;6504;53.766;9.626;2024-01-30T05:44:39;12.90;;;11.70;;
12871;SDS011;6504;53.766;9.626;2024-01-30T05:47:08;12.23;;;11.13;;
12871;SDS011;6504;53.766;9.626;2024-01-30T05:49:36;12.97;;;11.67;;
12871;SDS011;6504;53.766;9.626;2024-01-30T05:52:05;14.90;;;12.70;;
12871;SDS011;6504;53.766;9.626;2024-01-30T05:54:35;12.83;;;11.63;;
12871;SDS011;6504;53.766;9.626;2024-01-30T05:57:03;13.40;;;12.00;;
12871;SDS011;6504;53.766;9.626;2024-01-30T05:59:32;13.30;;;11.93;;
12871;SDS011;6504;53.766;9.626;2024-01-30T06:02:04;13.30;;;12.00;;
12871;SDS011;6504;53.766;9.626;2024-01-30T06:04:33;12.83;;;11.37;;
12871;SDS011;6504;53.766;9.626;2024-01-30T06:07:01;13.37;;;12.07;;
12871;SDS011;6504;53.766;9.626;2024-01-30T06:09:32;13.30;;;11.97;;
12871;SDS011;6504;53.766;9.626;2024-01-30T06:12:01;13.67;;;12.07;;
12871;SDS011;6504;53.766;9.626;2024-01-30T06:14:31;13.57;;;12.17;;
12871;SDS011;6504;53.766;9.626;2024-01-30T06:17:00;13.10;;;11.80;;
12871;SDS011;6504;53.766;9.626;2024-01-30T06:19:28;13.10;;;11.90;;
12871;SDS011;6504;53.766;9.626;2024-01-30T06:21:56;13.80;;;12.47;;
12871;SDS011;6504;53.766;9.626;2024-01-30T06:24:24;13.63;;;12.33;;
12871;SDS011;6504;53.766;9.626;2024-01-30T06:26:54;12.97;;;11.73;;
12871;SDS011;6504;53.766;9.626;2024-01-30T06:29:23;13.43;;;12.20;;
12871;SDS011;6504;53.766;9.626;2024-01-30T06:31:53;13.57;;;12.17;;
12871;SDS011;6504;53.766;9.626;2024-01-30T06:34:21;13.80;;;12.40;;
12871;SDS011;6504;53.766;9.626;2024-01-30T06:36:49;14.67;;;13.17;;
12871;SDS011;6504;53.766;9.626;2024-01-30T06:39:17;13.53;;;12.20;;
12871;SDS011;6504;53.766;9.626;2024-01-30T06:41:46;14.57;;;13.07;;
12871;SDS011;6504;53.766;9.626;2024-01-30T06:44:14;15.57;;;12.90;;
12871;SDS011;6504;53.766;9.626;2024-01-30T06:46:43;14.77;;;13.10;;
12871;SDS011;6504;53.766;9.626;2024-01-30T06:49:12;15.00;;;13.30;;
12871;SDS011;6504;53.766;9.626;2024-01-30T06:51:40;14.87;;;13.37;;
12871;SDS011;6504;53.766;9.626;2024-01-30T06:54:08;13.67;;;12.37;;
12871;SDS011;6504;53.766;9.626;2024-01-30T06:56:36;13.93;;;12.43;;
12871;SDS011;6504;53.766;9.626;2024-01-30T06:59:04;14.93;;;13.33;;
12871;SDS011;6504;53.766;9.626;2024-01-30T07:01:32;14.73;;;13.23;;
12871;SDS011;6504;53.766;9.626;2024-01-30T07:04:03;15.00;;;13.50;;
12871;SDS011;6504;53.766;9.626;2024-01-30T07:06:31;13.57;;;12.27;;
12871;SDS011;6504;53.766;9.626;2024-01-30T07:09:00;14.90;;;13.30;;
12871;SDS011;6504;53.766;9.626;2024-01-30T07:11:28;15.60;;;13.90;;
12871;SDS011;6504;53.766;9.626;2024-01-30T07:13:56;16.30;;;13.17;;
12871;SDS011;6504;53.766;9.626;2024-01-30T07:16:24;14.23;;;12.83;;
12871;SDS011;6504;53.766;9.626;2024-01-30T07:18:52;15.23;;;13.57;;
12871;SDS011;6504;53.766;9.626;2024-01-30T07:21:22;15.67;;;13.97;;
12871;SDS011;6504;53.766;9.626;2024-01-30T07:23:54;14.33;;;12.83;;
12871;SDS011;6504;53.766;9.626;2024-01-30T07:26:23;14.83;;;13.37;;
12871;SDS011;6504;53.766;9.626;2024-01-30T07:28:51;14.07;;;12.77;;
12871;SDS011;6504;53.766;9.626;2024-01-30T07:31:20;14.40;;;12.90;;
12871;SDS011;6504;53.766;9.626;2024-01-30T07:33:49;15.50;;;14.00;;
12871;SDS011;6504;53.766;9.626;2024-01-30T07:36:18;15.43;;;13.83;;
12871;SDS011;6504;53.766;9.626;2024-01-30T07:38:47;15.23;;;13.73;;
12871;SDS011;6504;53.766;9.626;2024-01-30T07:41:15;16.87;;;14.77;;
12871;SDS011;6504;53.766;9.626;2024-01-30T07:43:43;15.67;;;13.67;;
12871;SDS011;6504;53.766;9.626;2024-01-30T07:46:11;15.93;;;14.33;;
12871;SDS011;6504;53.766;9.626;2024-01-30T07:48:40;15.63;;;14.00;;
12871;SDS011;6504;53.766;9.626;2024-01-30T07:51:08;15.73;;;13.63;;
12871;SDS011;6504;53.766;9.626;2024-01-30T07:53:36;15.53;;;14.00;;
12871;SDS011;6504;53.766;9.626;2024-01-30T07:56:06;16.53;;;14.80;;
12871;SDS011;6504;53.766;9.626;2024-01-30T07:58:34;19.73;;;16.37;;
12871;SDS011;6504;53.766;9.626;2024-01-30T08:01:02;17.37;;;15.50;;
12871;SDS011;6504;53.766;9.626;2024-01-30T08:03:31;18.43;;;16.43;;
12871;SDS011;6504;53.766;9.626;2024-01-30T08:05:59;17.50;;;15.70;;
12871;SDS011;6504;53.766;9.626;2024-01-30T08:08:27;20.70;;;16.57;;
12871;SDS011;6504;53.766;9.626;2024-01-30T08:10:55;17.77;;;15.97;;
12871;SDS011;6504;53.766;9.626;2024-01-30T08:13:25;17.67;;;15.50;;
12871;SDS011;6504;53.766;9.626;2024-01-30T08:15:53;19.57;;;16.23;;
12871;SDS011;6504;53.766;9.626;2024-01-30T08:18:21;17.53;;;15.67;;
12871;SDS011;6504;53.766;9.626;2024-01-30T08:20:50;17.53;;;15.73;;
12871;SDS011;6504;53.766;9.626;2024-01-30T08:23:18;19.83;;;16.20;;
12871;SDS011;6504;53.766;9.626;2024-01-30T08:25:46;19.80;;;16.47;;
12871;SDS011;6504;53.766;9.626;2024-01-30T08:28:14;18.30;;;16.40;;
12871;SDS011;6504;53.766;9.626;2024-01-30T08:30:46;17.23;;;15.43;;
12871;SDS011;6504;53.766;9.626;2024-01-30T08:33:15;19.03;;;17.03;;
12871;SDS011;6504;53.766;9.626;2024-01-30T08:35:43;20.17;;;16.30;;
12871;SDS011;6504;53.766;9.626;2024-01-30T08:38:11;17.43;;;15.63;;
12871;SDS011;6504;53.766;9.626;2024-01-30T08:40:39;19.07;;;16.27;;
12871;SDS011;6504;53.766;9.626;2024-01-30T08:43:07;19.30;;;17.23;;
12871;SDS011;6504;53.766;9.626;2024-01-30T08:45:36;18.20;;;16.40;;
12871;SDS011;6504;53.766;9.626;2024-01-30T08:48:06;18.13;;;16.00;;
12871;SDS011;6504;53.766;9.626;2024-01-30T08:50:35;17.60;;;15.73;;
12871;SDS011;6504;53.766;9.626;2024-01-30T08:53:03;18.30;;;16.40;;
12871;SDS011;6504;53.766;9.626;2024-01-30T08:55:32;18.53;;;16.63;;
12871;SDS011;6504;53.766;9.626;2024-01-30T08:58:00;18.63;;;16.17;;
12871;SDS011;6504;53.766;9.626;2024-01-30T09:00:30;18.30;;;16.33;;
12871;SDS011;6504;53.766;9.626;2024-01-30T09:02:58;17.70;;;15.90;;
12871;SDS011;6504;53.766;9.626;2024-01-30T09:05:28;17.87;;;16.03;;
12871;SDS011;6504;53.766;9.626;2024-01-30T09:07:56;18.73;;;16.67;;
12871;SDS011;6504;53.766;9.626;2024-01-30T09:10:24;18.73;;;15.90;;
12871;SDS011;6504;53.766;9.626;2024-01-30T09:12:53;18.57;;;16.23;;
12871;SDS011;6504;53.766;9.626;2024-01-30T09:15:21;19.30;;;15.60;;
12871;SDS011;6504;53.766;9.626;2024-01-30T09:17:52;18.07;;;16.10;;
12871;SDS011;6504;53.766;9.626;2024-01-30T09:20:20;18.63;;;16.80;;
12871;SDS011;6504;53.766;9.626;2024-01-30T09:22:50;19.10;;;17.10;;
12871;SDS011;6504;53.766;9.626;2024-01-30T09:25:18;18.97;;;16.77;;
12871;SDS011;6504;53.766;9.626;2024-01-30T09:27:47;17.87;;;15.83;;
12871;SDS011;6504;53.766;9.626;2024-01-30T09:30:16;17.77;;;16.00;;
12871;SDS011;6504;53.766;9.626;2024-01-30T09:32:45;17.20;;;15.50;;
12871;SDS011;6504;53.766;9.626;2024-01-30T09:35:13;17.67;;;15.93;;
12871;SDS011;6504;53.766;9.626;2024-01-30T09:37:41;18.60;;;16.60;;
12871;SDS011;6504;53.766;9.626;2024-01-30T09:40:11;17.40;;;15.57;;
12871;SDS011;6504;53.766;9.626;2024-01-30T09:42:39;17.77;;;15.93;;
12871;SDS011;6504;53.766;9.626;2024-01-30T09:45:10;18.80;;;16.90;;
12871;SDS011;6504;53.766;9.626;2024-01-30T09:47:41;18.57;;;16.57;;
12871;SDS011;6504;53.766;9.626;2024-01-30T09:50:11;18.67;;;16.33;;
12871;SDS011;6504;53.766;9.626;2024-01-30T09:52:40;18.30;;;16.10;;
12871;SDS011;6504;53.766;9.626;2024-01-30T09:55:12;18.23;;;16.33;;
12871;SDS011;6504;53.766;9.626;2024-01-30T09:57:41;17.93;;;15.63;;
12871;SDS011;6504;53.766;9.626;2024-01-30T10:00:10;17.17;;;15.47;;
12871;SDS011;6504;53.766;9.626;2024-01-30T10:02:40;17.37;;;15.57;;
12871;SDS011;6504;53.766;9.626;2024-01-30T10:05:10;17.83;;;15.77;;
12871;SDS011;6504;53.766;9.626;2024-01-30T10:07:49;17.93;;;16.13;;
12871;SDS011;6504;53.766;9.626;2024-01-30T10:10:22;17.93;;;15.67;;
12871;SDS011;6504;53.766;9.626;2024-01-30T10:12:51;17.27;;;15.37;;
12871;SDS011;6504;53.766;9.626;2024-01-30T10:15:19;18.53;;;16.53;;
12871;SDS011;6504;53.766;9.626;2024-01-30T10:17:47;17.73;;;15.93;;
12871;SDS011;6504;53.766;9.626;2024-01-30T10:20:15;18.73;;;16.10;;
12871;SDS011;6504;53.766;9.626;2024-01-30T10:22:45;18.80;;;16.73;;
12871;SDS011;6504;53.766;9.626;2024-01-30T10:25:14;19.17;;;16.37;;
12871;SDS011;6504;53.766;9.626;2024-01-30T10:27:44;20.17;;;16.30;;
12871;SDS011;6504;53.766;9.626;2024-01-30T10:30:12;17.57;;;15.77;;
12871;SDS011;6504;53.766;9.626;2024-01-30T10:32:41;17.37;;;15.67;;
12871;SDS011;6504;53.766;9.626;2024-01-30T10:35:09;17.43;;;15.40;;
12871;SDS011;6504;53.766;9.626;2024-01-30T10:37:37;17.17;;;15.47;;
12871;SDS011;6504;53.766;9.626;2024-01-30T10:40:06;18.23;;;16.13;;
12871;SDS011;6504;53.766;9.626;2024-01-30T10:42:36;18.47;;;16.03;;
12871;SDS011;6504;53.766;9.626;2024-01-30T10:45:08;17.30;;;15.50;;
12871;SDS011;6504;53.766;9.626;2024-01-30T10:47:39;17.50;;;15.70;;
12871;SDS011;6504;53.766;9.626;2024-01-30T10:50:10;17.00;;;15.20;;
12871;SDS011;6504;53.766;9.626;2024-01-30T10:52:39;17.00;;;14.50;;
12871;SDS011;6504;53.766;9.626;2024-01-30T10:55:08;17.10;;;15.30;;
12871;SDS011;6504;53.766;9.626;2024-01-30T10:57:38;17.13;;;15.33;;
12871;SDS011;6504;53.766;9.626;2024-01-30T11:00:08;16.93;;;15.03;;
12871;SDS011;6504;53.766;9.626;2024-01-30T11:02:40;17.00;;;15.20;;
12871;SDS011;6504;53.766;9.626;2024-01-30T11:05:10;16.70;;;15.10;;
12871;SDS011;6504;53.766;9.626;2024-01-30T11:07:42;17.00;;;15.30;;
12871;SDS011;6504;53.766;9.626;2024-01-30T11:10:11;16.57;;;14.40;;
12871;SDS011;6504;53.766;9.626;2024-01-30T11:12:42;16.20;;;14.67;;
12871;SDS011;6504;53.766;9.626;2024-01-30T11:15:15;18.33;;;15.33;;
12871;SDS011;6504;53.766;9.626;2024-01-30T11:17:45;17.27;;;14.73;;
12871;SDS011;6504;53.766;9.626;2024-01-30T11:20:19;16.53;;;14.47;;
12871;SDS011;6504;53.766;9.626;2024-01-30T11:22:50;17.50;;;14.57;;
12871;SDS011;6504;53.766;9.626;2024-01-30T11:25:20;17.70;;;15.90;;
12871;SDS011;6504;53.766;9.626;2024-01-30T11:27:49;16.90;;;15.20;;
12871;SDS011;6504;53.766;9.626;2024-01-30T11:30:23;17.10;;;15.30;;
12871;SDS011;6504;53.766;9.626;2024-01-30T11:32:59;15.20;;;13.67;;
12871;SDS011;6504;53.766;9.626;2024-01-30T11:35:29;15.90;;;14.07;;
12871;SDS011;6504;53.766;9.626;2024-01-30T11:38:00;17.00;;;15.30;;
12871;SDS011;6504;53.766;9.626;2024-01-30T11:40:28;16.40;;;14.80;;
12871;SDS011;6504;53.766;9.626;2024-01-30T11:42:59;17.07;;;14.90;;
12871;SDS011;6504;53.766;9.626;2024-01-30T11:45:29;16.70;;;14.47;;
12871;SDS011;6504;53.766;9.626;2024-01-30T11:47:58;17.13;;;14.50;;
12871;SDS011;6504;53.766;9.626;2024-01-30T11:50:29;16.33;;;14.63;;
12871;SDS011;6504;53.766;9.626;2024-01-30T11:52:58;16.27;;;14.57;;
12871;SDS011;6504;53.766;9.626;2024-01-30T11:55:27;15.80;;;14.30;;
12871;SDS011;6504;53.766;9.626;2024-01-30T11:58:00;15.70;;;14.20;;
12871;SDS011;6504;53.766;9.626;2024-01-30T12:00:30;15.27;;;13.83;;
12871;SDS011;6504;53.766;9.626;2024-01-30T12:03:00;15.00;;;13.50;;
12871;SDS011;6504;53.766;9.626;2024-01-30T12:05:30;15.60;;;14.00;;
12871;SDS011;6504;53.766;9.626;2024-01-30T12:07:58;16.80;;;15.10;;
12871;SDS011;6504;53.766;9.626;2024-01-30T12:10:28;15.03;;;13.53;;
12871;SDS011;6504;53.766;9.626;2024-01-30T12:12:57;15.97;;;14.47;;
12871;SDS011;6504;53.766;9.626;2024-01-30T12:15:26;15.33;;;13.73;;
12871;SDS011;6504;53.766;9.626;2024-01-30T12:18:04;15.93;;;14.37;;
12871;SDS011;6504;53.766;9.626;2024-01-30T12:20:34;14.57;;;13.13;;
12871;SDS011;6504;53.766;9.626;2024-01-30T12:23:03;15.07;;;13.57;;
12871;SDS011;6504;53.766;9.626;2024-01-30T12:25:31;15.03;;;13.60;;
12871;SDS011;6504;53.766;9.626;2024-01-30T12:28:00;14.30;;;12.80;;
12871;SDS011;6504;53.766;9.626;2024-01-30T12:30:29;14.53;;;13.03;;
12871;SDS011;6504;53.766;9.626;2024-01-30T12:32:57;15.03;;;13.63;;
12871;SDS011;6504;53.766;9.626;2024-01-30T12:35:27;14.53;;;13.03;;
12871;SDS011;6504;53.766;9.626;2024-01-30T12:37:59;14.77;;;13.17;;
12871;SDS011;6504;53.766;9.626;2024-01-30T12:40:27;16.07;;;13.40;;
12871;SDS011;6504;53.766;9.626;2024-01-30T12:42:56;15.50;;;14.07;;
12871;SDS011;6504;53.766;9.626;2024-01-30T12:45:24;14.77;;;13.30;;
12871;SDS011;6504;53.766;9.626;2024-01-30T12:47:53;15.57;;;13.30;;
12871;SDS011;6504;53.766;9.626;2024-01-30T12:50:21;15.37;;;13.63;;
12871;SDS011;6504;53.766;9.626;2024-01-30T12:52:51;14.73;;;13.23;;
12871;SDS011;6504;53.766;9.626;2024-01-30T12:55:19;14.67;;;13.17;;
12871;SDS011;6504;53.766;9.626;2024-01-30T12:57:48;18.30;;;15.70;;
12871;SDS011;6504;53.766;9.626;2024-01-30T13:00:16;22.03;;;18.37;;
12871;SDS011;6504;53.766;9.626;2024-01-30T13:02:44;18.17;;;16.20;;
12871;SDS011;6504;53.766;9.626;2024-01-30T13:05:13;16.80;;;15.10;;
12871;SDS011;6504;53.766;9.626;2024-01-30T13:07:41;16.53;;;14.83;;
12871;SDS011;6504;53.766;9.626;2024-01-30T13:10:11;16.27;;;14.50;;
12871;SDS011;6504;53.766;9.626;2024-01-30T13:12:39;15.23;;;13.73;;
12871;SDS011;6504;53.766;9.626;2024-01-30T13:15:08;14.37;;;12.93;;
12871;SDS011;6504;53.766;9.626;2024-01-30T13:17:37;14.27;;;12.87;;
12871;SDS011;6504;53.766;9.626;2024-01-30T13:20:06;14.77;;;13.37;;
12871;SDS011;6504;53.766;9.626;2024-01-30T13:22:37;15.13;;;12.93;;
12871;SDS011;6504;53.766;9.626;2024-01-30T13:25:06;14.50;;;12.97;;
12871;SDS011;6504;53.766;9.626;2024-01-30T13:27:36;15.90;;;14.17;;
12871;SDS011;6504;53.766;9.626;2024-01-30T13:30:06;15.73;;;14.07;;
12871;SDS011;6504;53.766;9.626;2024-01-30T13:32:36;15.30;;;13.53;;
12871;SDS011;6504;53.766;9.626;2024-01-30T13:35:04;19.77;;;13.20;;
12871;SDS011;6504;53.766;9.626;2024-01-30T13:37:33;14.77;;;13.23;;
12871;SDS011;6504;53.766;9.626;2024-01-30T13:40:02;15.43;;;13.80;;
12871;SDS011;6504;53.766;9.626;2024-01-30T13:42:38;16.67;;;13.27;;
12871;SDS011;6504;53.766;9.626;2024-01-30T13:45:06;15.87;;;13.47;;
12871;SDS011;6504;53.766;9.626;2024-01-30T13:47:37;14.67;;;13.27;;
12871;SDS011;6504;53.766;9.626;2024-01-30T13:50:05;14.87;;;13.27;;
12871;SDS011;6504;53.766;9.626;2024-01-30T13:52:34;15.53;;;13.20;;
12871;SDS011;6504;53.766;9.626;2024-01-30T13:55:10;14.93;;;13.40;;
12871;SDS011;6504;53.766;9.626;2024-01-30T13:57:40;14.93;;;13.40;;
12871;SDS011;6504;53.766;9.626;2024-01-30T14:00:09;14.07;;;12.67;;
12871;SDS011;6504;53.766;9.626;2024-01-30T14:02:42;14.90;;;13.47;;
12871;SDS011;6504;53.766;9.626;2024-01-30T14:05:10;15.07;;;13.57;;
12871;SDS011;6504;53.766;9.626;2024-01-30T14:07:39;15.97;;;14.23;;
12871;SDS011;6504;53.766;9.626;2024-01-30T14:10:09;14.53;;;13.13;;
12871;SDS011;6504;53.766;9.626;2024-01-30T14:12:42;17.43;;;13.47;;
12871;SDS011;6504;53.766;9.626;2024-01-30T14:15:11;15.77;;;13.73;;
12871;SDS011;6504;53.766;9.626;2024-01-30T14:17:53;15.93;;;14.23;;
12871;SDS011;6504;53.766;9.626;2024-01-30T14:20:22;17.10;;;14.13;;
12871;SDS011;6504;53.766;9.626;2024-01-30T14:22:51;15.10;;;13.50;;
12871;SDS011;6504;53.766;9.626;2024-01-30T14:25:19;15.13;;;13.53;;
12871;SDS011;6504;53.766;9.626;2024-01-30T14:27:49;15.97;;;13.30;;
12871;SDS011;6504;53.766;9.626;2024-01-30T14:30:17;15.00;;;13.50;;
12871;SDS011;6504;53.766;9.626;2024-01-30T14:32:46;14.83;;;13.33;;
12871;SDS011;6504;53.766;9.626;2024-01-30T14:35:15;14.90;;;13.40;;
12871;SDS011;6504;53.766;9.626;2024-01-30T14:37:43;15.17;;;13.57;;
12871;SDS011;6504;53.766;9.626;2024-01-30T14:40:11;14.97;;;13.33;;
12871;SDS011;6504;53.766;9.626;2024-01-30T14:42:40;15.47;;;13.47;;
12871;SDS011;6504;53.766;9.626;2024-01-30T14:45:10;14.10;;;12.80;;
12871;SDS011;6504;53.766;9.626;2024-01-30T14:47:38;17.50;;;13.97;;